Time;durP1;ratioP1;P1;durP2;ratioP2;P2;SDS_P1;SDS_P2;PMS_P1;PMS_P2;Temp;Humidity;BMP_temperature;BMP_pressure;BME280_temperature;BME280_humidity;BME280_pressure;Samples;Min_cycle;Max_cycle;Signal;HPM_P1;HPM_P2
2023/09/15 00:00:23;;;;;;;6.97;4.28;;;16.60;99.90;;;;;;5054996;28;20225;-47
2023/09/15 00:02:51;;;;;;;6.15;4.38;;;16.50;99.90;;;;;;5055990;28;20563;-49
2023/09/15 00:05:18;;;;;;;4.65;4.20;;;16.60;99.90;;;;;;5056033;28;20385;-45
2023/09/15 00:07:45;;;;;;;4.78;4.20;;;16.60;99.90;;;;;;5055785;28;20183;-48
2023/09/15 00:10:19;;;;;;;5.32;4.25;;;16.50;99.90;;;;;;5055785;28;20205;-45
2023/09/15 00:12:45;;;;;;;6.30;4.75;;;16.50;99.90;;;;;;5056052;28;20201;-45
2023/09/15 00:15:12;;;;;;;7.30;4.88;;;16.50;99.90;;;;;;5055872;28;20193;-48
2023/09/15 00:17:39;;;;;;;5.90;4.97;;;16.50;99.90;;;;;;5054903;28;20168;-50
2023/09/15 00:20:25;;;;;;;6.85;4.78;;;16.50;99.90;;;;;;5055281;28;20696;-49
2023/09/15 00:22:52;;;;;;;4.72;4.22;;;16.50;99.90;;;;;;5055811;28;20214;-45
2023/09/15 00:25:22;;;;;;;5.45;4.93;;;16.40;99.90;;;;;;5055789;28;20167;-50
2023/09/15 00:27:53;;;;;;;5.50;4.40;;;16.40;99.90;;;;;;5055725;28;20652;-49
2023/09/15 00:30:21;;;;;;;5.10;4.60;;;16.50;99.90;;;;;;5055616;28;20174;-46
2023/09/15 00:32:48;;;;;;;5.35;4.85;;;16.50;99.90;;;;;;5055478;28;20595;-50
2023/09/15 00:35:18;;;;;;;5.72;5.10;;;16.50;99.90;;;;;;5055337;28;20171;-48
2023/09/15 00:37:47;;;;;;;5.18;4.68;;;16.40;99.90;;;;;;5055624;28;20198;-46
2023/09/15 00:40:17;;;;;;;5.82;5.05;;;16.40;99.90;;;;;;5055419;28;20171;-50
2023/09/15 00:42:44;;;;;;;5.53;5.00;;;16.30;99.90;;;;;;5055233;28;20199;-48
2023/09/15 00:45:15;;;;;;;6.25;5.60;;;16.20;99.90;;;;;;5055331;28;20258;-48
2023/09/15 00:47:52;;;;;;;5.60;4.55;;;16.20;99.90;;;;;;5055171;28;20183;-49
2023/09/15 00:50:21;;;;;;;5.97;5.38;;;16.20;99.90;;;;;;5055355;28;20171;-50
2023/09/15 00:52:52;;;;;;;6.78;5.30;;;16.10;99.90;;;;;;5055259;28;20175;-48
2023/09/15 00:55:20;;;;;;;6.28;4.90;;;16.00;99.90;;;;;;5055234;28;20213;-49
2023/09/15 00:57:49;;;;;;;6.82;5.22;;;16.00;99.90;;;;;;5053713;28;20171;-48
2023/09/15 01:00:17;;;;;;;6.57;5.47;;;16.00;99.90;;;;;;5055178;28;20236;-49
2023/09/15 01:02:44;;;;;;;6.13;5.50;;;15.90;99.90;;;;;;5054938;28;20575;-49
2023/09/15 01:05:19;;;;;;;6.50;5.70;;;15.80;99.90;;;;;;5055028;28;20175;-47
2023/09/15 01:07:46;;;;;;;6.63;5.95;;;15.70;99.90;;;;;;5054913;28;20250;-48
2023/09/15 01:10:14;;;;;;;7.53;5.57;;;15.80;99.90;;;;;;5054709;28;20237;-49
2023/09/15 01:12:41;;;;;;;6.25;5.65;;;15.80;99.90;;;;;;5054572;28;20183;-48
2023/09/15 01:15:07;;;;;;;6.10;5.45;;;15.70;99.90;;;;;;5054827;28;20663;-48
2023/09/15 01:17:53;;;;;;;6.68;5.43;;;15.50;99.90;;;;;;5054729;28;20536;-46
2023/09/15 01:20:44;;;;;;;6.20;5.60;;;15.50;99.90;;;;;;5054370;28;20219;-50
2023/09/15 01:23:37;;;;;;;6.43;5.35;;;15.50;99.90;;;;;;5054346;28;20234;-48
2023/09/15 01:26:07;;;;;;;5.93;5.43;;;15.50;99.90;;;;;;5054570;28;20213;-48
2023/09/15 01:28:56;;;;;;;6.50;5.90;;;15.50;99.90;;;;;;5054467;28;20189;-49
2023/09/15 01:31:23;;;;;;;7.40;5.97;;;15.40;99.90;;;;;;5054344;28;20505;-49
2023/09/15 01:33:49;;;;;;;6.93;6.25;;;15.40;99.90;;;;;;5054476;28;20172;-51
2023/09/15 01:36:14;;;;;;;7.68;5.78;;;15.40;99.90;;;;;;5054490;28;20255;-51
2023/09/15 01:38:40;;;;;;;7.00;6.40;;;15.40;99.90;;;;;;5054222;28;20309;-47
2023/09/15 01:41:05;;;;;;;8.05;7.05;;;15.40;99.90;;;;;;5054175;28;20583;-50
2023/09/15 01:43:31;;;;;;;7.63;6.82;;;15.40;99.90;;;;;;5054014;28;20668;-49
2023/09/15 01:45:57;;;;;;;8.85;7.28;;;15.30;99.90;;;;;;5054070;28;20258;-50
2023/09/15 01:48:24;;;;;;;7.85;6.93;;;15.20;99.90;;;;;;5054021;28;20528;-51
2023/09/15 01:50:51;;;;;;;8.80;7.18;;;15.20;99.90;;;;;;5054053;28;20179;-48
2023/09/15 01:53:17;;;;;;;8.38;7.63;;;15.30;99.90;;;;;;5054048;28;20179;-51
2023/09/15 01:55:43;;;;;;;8.60;7.80;;;15.30;99.90;;;;;;5054157;28;20179;-47
2023/09/15 01:58:09;;;;;;;10.27;8.18;;;15.30;99.90;;;;;;5054249;28;20265;-51
2023/09/15 02:00:36;;;;;;;11.43;8.32;;;15.40;99.90;;;;;;5053768;28;20371;-48
2023/09/15 02:03:03;;;;;;;8.30;7.35;;;15.40;99.90;;;;;;5054009;28;20239;-50
2023/09/15 02:05:29;;;;;;;8.68;7.88;;;15.40;99.90;;;;;;5053821;28;20175;-51
2023/09/15 02:07:54;;;;;;;9.68;7.95;;;15.40;99.90;;;;;;5053870;28;20176;-47
2023/09/15 02:10:20;;;;;;;9.65;8.13;;;15.30;99.90;;;;;;5053642;28;20179;-47
2023/09/15 02:12:46;;;;;;;10.77;8.52;;;15.30;99.90;;;;;;5053726;28;20171;-52
2023/09/15 02:15:12;;;;;;;9.02;8.13;;;15.20;99.90;;;;;;5053518;28;20183;-51
2023/09/15 02:17:40;;;;;;;8.68;7.78;;;15.20;99.90;;;;;;5053627;28;20176;-47
2023/09/15 02:20:12;;;;;;;9.30;8.38;;;15.20;99.90;;;;;;5053610;28;20652;-52
2023/09/15 02:22:41;;;;;;;9.65;8.50;;;15.30;99.90;;;;;;5053549;28;20241;-51
2023/09/15 02:25:11;;;;;;;9.45;8.55;;;15.20;99.90;;;;;;5053337;28;20560;-47
2023/09/15 02:27:37;;;;;;;10.00;8.85;;;15.20;99.90;;;;;;5053319;28;20578;-48
2023/09/15 02:30:06;;;;;;;9.63;8.73;;;15.10;99.90;;;;;;5053635;28;20273;-51
2023/09/15 02:32:32;;;;;;;9.48;8.50;;;15.10;99.90;;;;;;5053418;28;20182;-47
2023/09/15 02:34:58;;;;;;;9.25;8.27;;;15.10;99.90;;;;;;5053387;28;20563;-47
2023/09/15 02:37:24;;;;;;;10.20;9.20;;;15.10;99.90;;;;;;5053298;28;20175;-49
2023/09/15 02:39:50;;;;;;;9.70;8.77;;;15.00;99.90;;;;;;5053307;28;20175;-52
2023/09/15 02:42:15;;;;;;;9.70;8.80;;;15.00;99.90;;;;;;5052362;28;20207;-50
2023/09/15 02:44:44;;;;;;;11.38;9.18;;;15.00;99.90;;;;;;5053144;28;20183;-50
2023/09/15 02:47:09;;;;;;;10.23;8.88;;;15.10;99.90;;;;;;5053317;28;20182;-50
2023/09/15 02:49:35;;;;;;;9.98;8.98;;;15.10;99.90;;;;;;5053228;28;20175;-49
2023/09/15 02:52:05;;;;;;;10.43;9.43;;;15.10;99.90;;;;;;5053328;28;20506;-49
2023/09/15 02:54:30;;;;;;;11.57;9.70;;;15.10;99.90;;;;;;5053168;28;20183;-47
2023/09/15 02:56:56;;;;;;;11.00;9.90;;;15.10;99.90;;;;;;5053001;28;20179;-48
2023/09/15 02:59:21;;;;;;;10.90;9.80;;;15.10;99.90;;;;;;5053061;28;20171;-52
2023/09/15 03:01:47;;;;;;;11.48;10.27;;;15.00;99.90;;;;;;5053424;28;20171;-50
2023/09/15 03:04:13;;;;;;;12.43;10.80;;;15.00;99.90;;;;;;5052958;28;20214;-49
2023/09/15 03:06:39;;;;;;;10.80;9.70;;;15.00;99.90;;;;;;5053050;28;20686;-51
2023/09/15 03:09:06;;;;;;;11.57;10.27;;;15.00;99.90;;;;;;5052974;28;20190;-51
2023/09/15 03:11:32;;;;;;;11.73;10.27;;;15.00;99.90;;;;;;5052901;28;20229;-50
2023/09/15 03:13:58;;;;;;;11.23;10.02;;;15.00;99.90;;;;;;5053002;28;20214;-53
2023/09/15 03:16:25;;;;;;;11.27;10.07;;;15.10;99.90;;;;;;5053097;28;20175;-51
2023/09/15 03:18:51;;;;;;;11.35;10.25;;;15.00;99.90;;;;;;5052886;28;20176;-52
2023/09/15 03:21:17;;;;;;;12.32;10.65;;;15.00;99.90;;;;;;5052666;28;20588;-52
2023/09/15 03:23:42;;;;;;;11.18;10.02;;;14.90;99.90;;;;;;5052817;28;20227;-47
2023/09/15 03:26:08;;;;;;;12.45;11.15;;;14.90;99.90;;;;;;5052739;28;20179;-50
2023/09/15 03:28:36;;;;;;;11.73;10.52;;;15.00;99.90;;;;;;5052924;28;20233;-51
2023/09/15 03:31:05;;;;;;;15.02;11.35;;;15.00;99.90;;;;;;5052679;28;20528;-48
2023/09/15 03:33:31;;;;;;;12.05;10.63;;;15.00;99.90;;;;;;5052692;28;20179;-50
2023/09/15 03:35:58;;;;;;;12.50;11.27;;;15.00;99.90;;;;;;5052772;28;20171;-49
2023/09/15 03:38:24;;;;;;;12.15;10.85;;;14.90;99.90;;;;;;5052589;28;20683;-49
2023/09/15 03:40:49;;;;;;;11.82;10.63;;;14.90;99.90;;;;;;5052493;28;20180;-48
2023/09/15 03:43:15;;;;;;;12.27;11.07;;;14.90;99.90;;;;;;5052673;28;20264;-51
2023/09/15 03:45:44;;;;;;;11.68;10.48;;;14.90;99.90;;;;;;5052640;28;20652;-49
2023/09/15 03:48:10;;;;;;;13.00;11.18;;;14.90;99.90;;;;;;5052718;28;20183;-50
2023/09/15 03:50:35;;;;;;;11.73;10.63;;;14.80;99.90;;;;;;5052486;28;20176;-52
2023/09/15 03:53:02;;;;;;;13.20;11.77;;;14.70;99.90;;;;;;5054870;28;20190;-50
2023/09/15 03:55:28;;;;;;;13.13;11.82;;;14.70;99.90;;;;;;5056542;28;20190;-48
2023/09/15 03:57:53;;;;;;;14.40;12.90;;;14.70;99.90;;;;;;5056141;28;20552;-47
2023/09/15 04:00:21;;;;;;;13.93;12.52;;;14.70;99.90;;;;;;5056288;28;20682;-47
2023/09/15 04:02:47;;;;;;;13.18;11.90;;;14.70;99.90;;;;;;5055879;28;20583;-51
2023/09/15 04:05:13;;;;;;;13.88;12.48;;;14.70;99.90;;;;;;5056010;28;20650;-49
2023/09/15 04:07:39;;;;;;;14.98;13.48;;;14.60;99.90;;;;;;5055992;28;20176;-46
2023/09/15 04:10:06;;;;;;;15.30;13.45;;;14.60;99.90;;;;;;5056166;28;20183;-52
2023/09/15 04:12:33;;;;;;;15.52;14.02;;;14.70;99.90;;;;;;5056176;28;20626;-46
2023/09/15 04:14:59;;;;;;;17.10;14.80;;;14.70;99.90;;;;;;5055893;28;20183;-47
2023/09/15 04:17:25;;;;;;;18.55;15.65;;;14.70;99.90;;;;;;5055941;28;20175;-48
2023/09/15 04:19:51;;;;;;;16.02;14.45;;;14.60;99.90;;;;;;5055853;28;20223;-49
2023/09/15 04:22:16;;;;;;;18.13;15.80;;;14.60;99.90;;;;;;5055462;28;20672;-50
2023/09/15 04:24:42;;;;;;;17.23;15.20;;;14.60;99.90;;;;;;5055463;28;20172;-49
2023/09/15 04:27:08;;;;;;;16.13;14.48;;;14.70;99.90;;;;;;5055774;28;20209;-47
2023/09/15 04:29:38;;;;;;;16.38;14.68;;;14.60;99.90;;;;;;5055369;28;20697;-46
2023/09/15 04:32:04;;;;;;;16.77;14.98;;;14.60;99.90;;;;;;5054917;28;20583;-50
2023/09/15 04:34:30;;;;;;;19.20;16.40;;;14.50;99.90;;;;;;5054961;28;20183;-52
2023/09/15 04:36:55;;;;;;;16.20;14.48;;;14.40;99.90;;;;;;5053227;28;20191;-49
2023/09/15 04:39:21;;;;;;;18.08;16.30;;;14.50;99.90;;;;;;5054650;28;20186;-47
2023/09/15 04:41:46;;;;;;;20.00;17.95;;;14.50;99.90;;;;;;5054866;28;20171;-49
2023/09/15 04:44:13;;;;;;;18.60;16.60;;;14.50;99.90;;;;;;5053865;28;20215;-49
2023/09/15 04:46:38;;;;;;;18.58;16.70;;;14.50;99.90;;;;;;5055180;28;20250;-47
2023/09/15 04:49:05;;;;;;;19.55;17.55;;;14.50;99.90;;;;;;5055217;28;20179;-46
2023/09/15 04:51:30;;;;;;;21.45;18.70;;;14.40;99.90;;;;;;5055080;28;20175;-46
2023/09/15 04:53:56;;;;;;;21.08;17.40;;;14.40;99.90;;;;;;5055262;28;20182;-46
2023/09/15 04:56:21;;;;;;;21.52;18.67;;;14.40;99.90;;;;;;5055229;28;20182;-47
2023/09/15 04:58:48;;;;;;;20.90;17.77;;;14.40;99.90;;;;;;5054952;28;20630;-47
2023/09/15 05:01:16;;;;;;;20.02;17.60;;;14.40;99.90;;;;;;5054219;28;20568;-47
2023/09/15 05:03:44;;;;;;;19.75;17.58;;;14.50;99.90;;;;;;5054222;28;20807;-46
2023/09/15 05:06:09;;;;;;;19.65;17.60;;;14.50;99.90;;;;;;5054683;28;20183;-49
2023/09/15 05:08:35;;;;;;;21.67;18.88;;;14.50;99.90;;;;;;5055057;28;20175;-46
2023/09/15 05:11:01;;;;;;;21.95;19.48;;;14.40;99.90;;;;;;5055048;28;20234;-48
2023/09/15 05:13:26;;;;;;;23.15;20.35;;;14.40;99.90;;;;;;5054819;28;20325;-50
2023/09/15 05:15:52;;;;;;;21.80;19.45;;;14.40;99.90;;;;;;5054777;28;20168;-51
2023/09/15 05:18:18;;;;;;;24.25;19.92;;;14.40;99.90;;;;;;5054679;28;20206;-46
2023/09/15 05:20:44;;;;;;;26.40;20.67;;;14.50;99.90;;;;;;5054706;28;20231;-49
2023/09/15 05:23:09;;;;;;;29.70;20.13;;;14.50;99.90;;;;;;5054728;28;20610;-46
2023/09/15 05:25:35;;;;;;;26.30;20.38;;;14.60;99.90;;;;;;5054718;28;20237;-51
2023/09/15 05:28:01;;;;;;;26.00;20.73;;;14.50;99.90;;;;;;5054639;28;20624;-48
2023/09/15 05:30:29;;;;;;;26.90;20.38;;;14.50;99.90;;;;;;5054539;28;20171;-49
2023/09/15 05:32:55;;;;;;;24.70;20.35;;;14.60;99.90;;;;;;5054306;28;20633;-52
2023/09/15 05:35:21;;;;;;;25.00;20.27;;;14.70;99.90;;;;;;5052900;28;20175;-49
2023/09/15 05:37:47;;;;;;;23.10;19.58;;;14.70;99.90;;;;;;5054232;28;20692;-47
2023/09/15 05:40:13;;;;;;;27.38;20.38;;;14.60;99.90;;;;;;5054331;28;20250;-49
2023/09/15 05:42:39;;;;;;;21.00;18.75;;;14.70;99.90;;;;;;5052836;28;20282;-50
2023/09/15 05:45:05;;;;;;;22.63;18.38;;;14.70;99.90;;;;;;5054093;28;20175;-47
2023/09/15 05:47:31;;;;;;;22.50;18.65;;;14.60;99.90;;;;;;5054072;28;20218;-48
2023/09/15 05:50:00;;;;;;;23.40;20.02;;;14.60;99.90;;;;;;5053808;28;20167;-52
2023/09/15 05:52:26;;;;;;;24.88;19.90;;;14.60;99.90;;;;;;5054026;28;20202;-49
2023/09/15 05:54:52;;;;;;;26.08;19.15;;;14.70;99.90;;;;;;5054072;28;20179;-48
2023/09/15 05:57:17;;;;;;;24.00;20.00;;;14.70;99.90;;;;;;5053992;28;20182;-47
2023/09/15 05:59:43;;;;;;;21.58;18.45;;;14.70;99.90;;;;;;5053898;28;20175;-50
2023/09/15 06:02:09;;;;;;;23.95;19.23;;;14.70;99.90;;;;;;5053741;28;20532;-52
2023/09/15 06:04:34;;;;;;;22.60;19.30;;;14.80;99.90;;;;;;5053678;28;20171;-46
2023/09/15 06:07:00;;;;;;;26.73;19.92;;;14.80;99.90;;;;;;5053942;28;20178;-47
2023/09/15 06:09:26;;;;;;;23.98;19.20;;;14.80;99.90;;;;;;5053829;28;20213;-49
2023/09/15 06:11:52;;;;;;;24.90;19.92;;;14.90;99.90;;;;;;5053642;28;20540;-52
2023/09/15 06:14:17;;;;;;;25.60;20.50;;;15.00;99.90;;;;;;5053609;28;20628;-52
2023/09/15 06:16:46;;;;;;;21.55;19.13;;;14.90;99.90;;;;;;5052646;28;20322;-52
2023/09/15 06:19:12;;;;;;;26.92;19.33;;;15.00;99.90;;;;;;5053086;28;20258;-51
2023/09/15 06:21:38;;;;;;;25.83;19.38;;;15.10;99.90;;;;;;5053735;28;20236;-46
2023/09/15 06:24:04;;;;;;;24.58;19.40;;;15.20;99.90;;;;;;5053542;28;20219;-49
2023/09/15 06:26:30;;;;;;;21.20;18.85;;;15.20;99.90;;;;;;5053535;28;20171;-53
2023/09/15 06:28:56;;;;;;;20.90;18.33;;;15.30;99.90;;;;;;5053425;28;20186;-48
2023/09/15 06:31:22;;;;;;;20.83;17.75;;;15.30;99.90;;;;;;5053267;28;20179;-48
2023/09/15 06:33:47;;;;;;;19.90;17.80;;;15.40;99.90;;;;;;5053295;28;20262;-51
2023/09/15 06:36:13;;;;;;;21.80;18.00;;;15.50;99.90;;;;;;5053447;28;20264;-47
2023/09/15 06:38:39;;;;;;;20.33;16.92;;;15.60;99.90;;;;;;5053343;28;20201;-50
2023/09/15 06:41:05;;;;;;;20.63;17.13;;;15.70;99.90;;;;;;5053484;28;20179;-53
2023/09/15 06:43:30;;;;;;;20.65;16.63;;;15.60;99.90;;;;;;5053195;28;20214;-50
2023/09/15 06:45:57;;;;;;;18.10;16.20;;;15.60;99.90;;;;;;5053194;28;20536;-46
2023/09/15 06:48:22;;;;;;;18.25;15.80;;;15.70;99.90;;;;;;5053094;28;20167;-48
2023/09/15 06:50:48;;;;;;;16.92;15.23;;;15.70;99.90;;;;;;5053310;28;20182;-51
2023/09/15 06:53:14;;;;;;;17.70;15.23;;;15.80;99.90;;;;;;5053234;28;20182;-50
2023/09/15 06:55:39;;;;;;;16.92;14.80;;;15.80;99.90;;;;;;5053203;28;20182;-48
2023/09/15 06:58:05;;;;;;;19.08;14.70;;;15.90;99.90;;;;;;5053065;28;20183;-47
2023/09/15 07:00:31;;;;;;;19.60;15.00;;;16.00;99.90;;;;;;5052235;28;20187;-47
2023/09/15 07:02:56;;;;;;;16.33;14.60;;;16.10;99.90;;;;;;5052588;28;20214;-49
2023/09/15 07:05:22;;;;;;;15.90;14.20;;;16.10;99.90;;;;;;5053030;28;20202;-49
2023/09/15 07:07:51;;;;;;;17.42;14.38;;;16.20;99.90;;;;;;5051708;28;20767;-52
2023/09/15 07:10:16;;;;;;;15.52;13.02;;;16.30;99.90;;;;;;5052952;28;20644;-50
2023/09/15 07:12:42;;;;;;;16.20;13.80;;;16.50;99.90;;;;;;5052876;28;20237;-49
2023/09/15 07:15:08;;;;;;;15.38;13.07;;;16.50;99.90;;;;;;5052863;28;20183;-48
2023/09/15 07:17:34;;;;;;;15.02;13.45;;;16.60;99.90;;;;;;5052851;28;20168;-47
2023/09/15 07:19:59;;;;;;;15.45;13.00;;;16.70;99.90;;;;;;5052905;28;20227;-49
2023/09/15 07:22:27;;;;;;;14.38;12.88;;;16.80;99.90;;;;;;5053008;28;20215;-52
2023/09/15 07:24:53;;;;;;;14.18;12.73;;;16.80;99.90;;;;;;5052961;28;20175;-49
2023/09/15 07:27:18;;;;;;;14.13;11.75;;;17.00;99.90;;;;;;5053750;28;20537;-50
2023/09/15 07:29:44;;;;;;;17.23;12.80;;;17.00;99.90;;;;;;5056738;28;20244;-51
2023/09/15 07:32:09;;;;;;;12.25;10.95;;;17.10;99.90;;;;;;5056555;28;20335;-50
2023/09/15 07:34:35;;;;;;;14.48;11.70;;;17.20;99.90;;;;;;5056801;28;20183;-52
2023/09/15 07:37:02;;;;;;;12.95;11.18;;;17.30;99.90;;;;;;5056830;28;20537;-48
2023/09/15 07:39:29;;;;;;;13.82;12.13;;;17.30;99.90;;;;;;5056865;28;20183;-51
2023/09/15 07:41:55;;;;;;;13.18;11.27;;;17.50;99.90;;;;;;5056613;28;20563;-47
2023/09/15 07:44:23;;;;;;;13.77;11.55;;;17.60;99.90;;;;;;5056474;28;20222;-49
2023/09/15 07:46:49;;;;;;;12.85;11.07;;;17.70;99.90;;;;;;5056346;28;20177;-52
2023/09/15 07:49:14;;;;;;;11.02;9.88;;;17.70;99.90;;;;;;5056538;28;20172;-50
2023/09/15 07:51:40;;;;;;;12.68;10.63;;;17.80;99.90;;;;;;5056710;28;20172;-48
2023/09/15 07:54:06;;;;;;;12.23;10.38;;;17.90;99.90;;;;;;5056334;28;20179;-52
2023/09/15 07:56:31;;;;;;;11.95;10.40;;;18.00;99.90;;;;;;5056311;28;20175;-50
2023/09/15 07:58:57;;;;;;;12.98;9.80;;;18.20;99.90;;;;;;5056235;28;20185;-48
2023/09/15 08:01:23;;;;;;;12.50;9.68;;;18.30;99.90;;;;;;5056089;28;20210;-50
2023/09/15 08:03:48;;;;;;;10.18;9.05;;;18.40;99.90;;;;;;5056405;28;20555;-50
2023/09/15 08:06:15;;;;;;;12.32;8.90;;;18.50;99.90;;;;;;5056206;28;20178;-51
2023/09/15 08:08:42;;;;;;;11.82;8.15;;;18.60;99.90;;;;;;5056170;28;20171;-49
2023/09/15 08:11:09;;;;;;;12.52;8.43;;;18.70;99.90;;;;;;5055931;28;20544;-52
2023/09/15 08:13:34;;;;;;;13.93;8.68;;;18.60;99.90;;;;;;5055786;28;20625;-49
2023/09/15 08:16:00;;;;;;;13.75;8.18;;;18.60;99.90;;;;;;5055869;28;20178;-46
2023/09/15 08:18:26;;;;;;;9.27;7.53;;;18.70;99.90;;;;;;5056219;28;20179;-47
2023/09/15 08:20:52;;;;;;;9.45;6.32;;;18.90;99.90;;;;;;5055858;28;20250;-49
2023/09/15 08:23:18;;;;;;;9.10;6.47;;;18.90;99.90;;;;;;5055665;28;20679;-46
2023/09/15 08:25:43;;;;;;;11.13;6.93;;;19.00;99.90;;;;;;5055793;28;20300;-51
2023/09/15 08:28:09;;;;;;;10.18;6.72;;;19.00;99.90;;;;;;5055536;28;20191;-48
2023/09/15 08:30:37;;;;;;;8.20;5.95;;;19.10;99.90;;;;;;5055518;28;20190;-47
2023/09/15 08:33:05;;;;;;;8.40;5.65;;;19.20;99.90;;;;;;5055677;28;20546;-47
2023/09/15 08:35:30;;;;;;;8.52;5.88;;;19.40;99.90;;;;;;5055598;28;20164;-46
2023/09/15 08:37:56;;;;;;;7.80;5.15;;;19.40;99.90;;;;;;5055522;28;20228;-50
2023/09/15 08:40:22;;;;;;;6.18;5.20;;;19.50;99.90;;;;;;5054502;28;20178;-46
2023/09/15 08:42:48;;;;;;;8.18;5.47;;;19.60;99.90;;;;;;5055487;28;20567;-46
2023/09/15 08:45:14;;;;;;;6.85;5.75;;;19.70;99.90;;;;;;5055506;28;20187;-46
2023/09/15 08:47:45;;;;;;;7.50;5.03;;;19.70;99.90;;;;;;5055263;28;20509;-49
2023/09/15 08:50:11;;;;;;;7.47;5.53;;;19.70;99.90;;;;;;5055187;28;20517;-47
2023/09/15 08:52:37;;;;;;;9.27;5.65;;;19.80;99.90;;;;;;5055318;28;20187;-48
2023/09/15 08:55:04;;;;;;;7.80;5.68;;;19.80;99.90;;;;;;5054004;28;20637;-49
2023/09/15 08:57:30;;;;;;;6.75;5.53;;;19.90;99.90;;;;;;5055099;28;20167;-51
2023/09/15 08:59:57;;;;;;;5.18;4.45;;;20.00;99.90;;;;;;5054873;28;20187;-48
2023/09/15 09:02:24;;;;;;;8.23;4.85;;;20.10;99.90;;;;;;5055309;28;20176;-52
2023/09/15 09:04:50;;;;;;;7.93;4.45;;;20.10;99.90;;;;;;5055037;28;20648;-50
2023/09/15 09:07:18;;;;;;;7.53;5.10;;;20.20;99.90;;;;;;5054895;28;20593;-47
2023/09/15 09:09:45;;;;;;;6.85;4.82;;;20.40;99.90;;;;;;5054885;28;20248;-47
2023/09/15 09:12:11;;;;;;;6.43;5.32;;;20.50;99.90;;;;;;5054768;28;20587;-47
2023/09/15 09:14:36;;;;;;;6.32;4.28;;;20.50;99.90;;;;;;5054674;28;20209;-51
2023/09/15 09:17:03;;;;;;;5.05;4.40;;;20.60;99.90;;;;;;5054758;28;20180;-49
2023/09/15 09:19:42;;;;;;;5.75;4.63;;;20.70;99.90;;;;;;5054422;28;20246;-47
2023/09/15 09:22:08;;;;;;;4.95;3.90;;;20.50;99.90;;;;;;5054486;28;20178;-51
2023/09/15 09:24:37;;;;;;;5.65;3.63;;;20.80;99.90;;;;;;5054495;28;20648;-46
2023/09/15 09:27:10;;;;;;;4.18;2.88;;;20.80;99.90;;;;;;5054347;28;20199;-50
2023/09/15 09:29:37;;;;;;;4.03;2.83;;;21.00;99.90;;;;;;5054635;28;20179;-48
2023/09/15 09:32:04;;;;;;;4.30;2.97;;;21.10;99.90;;;;;;5054283;28;20700;-47
2023/09/15 09:34:30;;;;;;;6.65;3.05;;;21.20;99.90;;;;;;5054322;28;20652;-46
2023/09/15 09:36:55;;;;;;;3.70;2.30;;;21.20;99.90;;;;;;5054274;28;20206;-47
2023/09/15 09:39:21;;;;;;;3.25;2.28;;;21.40;99.90;;;;;;5054135;28;20186;-48
2023/09/15 09:41:47;;;;;;;3.97;2.40;;;21.50;99.90;;;;;;5054455;28;20172;-47
2023/09/15 09:44:13;;;;;;;2.97;2.40;;;21.50;99.90;;;;;;5054300;28;20215;-47
2023/09/15 09:46:42;;;;;;;4.88;2.80;;;21.60;99.90;;;;;;5054238;28;20183;-47
2023/09/15 09:49:09;;;;;;;4.82;2.55;;;21.60;99.90;;;;;;5053991;28;20529;-47
2023/09/15 09:51:35;;;;;;;5.35;2.92;;;21.70;99.90;;;;;;5053793;28;20652;-51
2023/09/15 09:54:02;;;;;;;4.68;2.72;;;21.80;99.90;;;;;;5053916;28;20179;-47
2023/09/15 09:56:32;;;;;;;5.47;3.20;;;21.90;99.90;;;;;;5054122;28;20183;-46
2023/09/15 09:59:16;;;;;;;8.15;3.42;;;21.80;99.90;;;;;;5054078;28;20182;-51
2023/09/15 10:01:42;;;;;;;4.47;2.72;;;21.80;99.90;;;;;;5053866;28;20182;-45
2023/09/15 10:04:07;;;;;;;4.00;2.65;;;21.80;99.90;;;;;;5053698;28;20207;-48
2023/09/15 10:06:35;;;;;;;8.02;2.70;;;21.80;99.90;;;;;;5053670;28;20174;-46
2023/09/15 10:09:02;;;;;;;6.07;3.30;;;21.90;99.90;;;;;;5053899;28;20183;-47
2023/09/15 10:11:29;;;;;;;4.30;3.20;;;21.90;99.90;;;;;;5053885;28;20183;-51
2023/09/15 10:13:56;;;;;;;4.45;3.03;;;22.10;99.90;;;;;;5053719;28;20174;-45
2023/09/15 10:16:22;;;;;;;5.63;2.97;;;21.90;99.90;;;;;;5053607;28;20179;-45
2023/09/15 10:18:48;;;;;;;6.80;2.80;;;21.60;99.90;;;;;;5053650;28;20190;-47
2023/09/15 10:21:15;;;;;;;6.43;3.03;;;21.50;99.90;;;;;;5053883;28;20223;-46
2023/09/15 10:23:40;;;;;;;5.72;3.05;;;21.60;99.90;;;;;;5053610;28;20210;-45
2023/09/15 10:26:09;;;;;;;6.00;3.22;;;21.70;99.90;;;;;;5053557;28;20180;-45
2023/09/15 10:28:42;;;;;;;5.82;2.80;;;21.80;99.90;;;;;;5053413;28;20187;-45
2023/09/15 10:31:07;;;;;;;6.25;3.05;;;22.10;99.90;;;;;;5053412;28;20181;-50
2023/09/15 10:33:33;;;;;;;9.13;3.15;;;22.20;99.90;;;;;;5053270;28;20629;-47
2023/09/15 10:36:04;;;;;;;6.03;2.78;;;22.40;99.90;;;;;;5053216;28;20163;-48
2023/09/15 10:38:32;;;;;;;4.10;2.40;;;22.50;99.90;;;;;;5053363;28;20176;-51
2023/09/15 10:41:00;;;;;;;4.22;2.85;;;22.70;99.90;;;;;;5053271;28;20579;-50
2023/09/15 10:43:26;;;;;;;6.13;2.80;;;22.60;99.90;;;;;;5053035;28;20631;-49
2023/09/15 10:46:02;;;;;;;4.22;2.40;;;22.80;99.90;;;;;;5053190;28;20191;-49
2023/09/15 10:48:46;;;;;;;4.80;2.53;;;23.00;99.90;;;;;;5053069;28;20179;-50
2023/09/15 10:51:16;;;;;;;7.20;2.78;;;23.10;99.90;;;;;;5053262;28;20265;-50
2023/09/15 10:53:45;;;;;;;9.88;2.75;;;23.00;99.90;;;;;;5053150;28;20175;-52
2023/09/15 10:56:12;;;;;;;7.18;2.22;;;23.10;99.90;;;;;;5053035;28;20640;-51
2023/09/15 10:58:38;;;;;;;5.57;2.33;;;23.10;99.90;;;;;;5052920;28;20636;-51
2023/09/15 11:01:05;;;;;;;7.75;2.35;;;23.10;99.90;;;;;;5053187;28;20221;-49
2023/09/15 11:03:32;;;;;;;9.00;2.67;;;22.90;99.90;;;;;;5055978;28;20563;-48
2023/09/15 11:05:58;;;;;;;6.80;2.35;;;23.20;99.90;;;;;;5057302;28;20167;-49
2023/09/15 11:08:25;;;;;;;8.15;2.65;;;23.30;99.90;;;;;;5057209;28;20201;-46
2023/09/15 11:10:59;;;;;;;4.57;1.98;;;23.40;99.90;;;;;;5056986;28;20171;-50
2023/09/15 11:13:25;;;;;;;7.90;2.30;;;23.40;99.90;;;;;;5056894;28;20186;-48
2023/09/15 11:15:51;;;;;;;8.00;2.42;;;23.40;99.90;;;;;;5057152;28;20175;-46
2023/09/15 11:18:18;;;;;;;3.72;2.15;;;23.50;99.90;;;;;;5057350;28;20175;-49
2023/09/15 11:20:44;;;;;;;6.43;2.40;;;23.50;99.90;;;;;;5056807;28;20319;-52
2023/09/15 11:23:09;;;;;;;3.60;1.80;;;23.60;99.90;;;;;;5056813;28;20201;-46
2023/09/15 11:25:35;;;;;;;3.25;2.17;;;23.50;99.90;;;;;;5055523;28;20587;-47
2023/09/15 11:28:01;;;;;;;5.68;2.28;;;23.40;99.90;;;;;;5056582;28;20266;-47
2023/09/15 11:30:28;;;;;;;4.82;2.10;;;23.50;99.90;;;;;;5056887;28;20176;-48
2023/09/15 11:32:55;;;;;;;5.82;2.33;;;23.60;99.90;;;;;;5056817;28;20628;-48
2023/09/15 11:35:24;;;;;;;6.15;2.33;;;23.40;99.90;;;;;;5056730;28;20258;-50
2023/09/15 11:37:52;;;;;;;2.20;1.90;;;23.30;99.90;;;;;;5056621;28;20168;-49
2023/09/15 11:40:24;;;;;;;3.25;1.70;;;23.50;99.90;;;;;;5056479;28;20539;-51
2023/09/15 11:42:55;;;;;;;2.45;1.77;;;23.40;99.90;;;;;;5056353;28;20203;-48
2023/09/15 11:45:25;;;;;;;3.03;1.60;;;23.40;99.90;;;;;;5056517;28;20182;-48
2023/09/15 11:47:50;;;;;;;2.78;1.63;;;23.50;99.90;;;;;;5056470;28;20168;-49
2023/09/15 11:50:17;;;;;;;3.40;1.55;;;23.60;99.90;;;;;;5056700;28;20175;-49
2023/09/15 11:52:43;;;;;;;3.28;1.65;;;23.70;99.90;;;;;;5056284;28;20187;-49
2023/09/15 11:55:20;;;;;;;3.00;1.80;;;23.70;99.90;;;;;;5056219;28;20232;-48
2023/09/15 11:57:46;;;;;;;2.35;1.70;;;23.40;99.30;;;;;;5056355;28;20175;-49
2023/09/15 12:00:16;;;;;;;3.17;1.70;;;23.50;99.90;;;;;;5056156;28;20663;-48
2023/09/15 12:02:44;;;;;;;2.35;1.58;;;23.50;99.90;;;;;;5056052;28;20690;-51
2023/09/15 12:05:11;;;;;;;3.47;1.50;;;23.40;99.20;;;;;;5056046;28;20176;-50
2023/09/15 12:07:37;;;;;;;2.67;1.70;;;23.40;99.70;;;;;;5055884;28;20167;-50
2023/09/15 12:10:05;;;;;;;1.73;1.45;;;23.40;99.90;;;;;;5056437;28;20625;-46
2023/09/15 12:12:31;;;;;;;2.50;1.60;;;23.50;99.90;;;;;;5055965;28;20687;-49
2023/09/15 12:15:01;;;;;;;4.25;1.88;;;23.60;99.90;;;;;;5055705;28;20702;-48
2023/09/15 12:17:31;;;;;;;3.42;1.58;;;23.50;99.50;;;;;;5055058;28;20180;-51
2023/09/15 12:20:04;;;;;;;4.40;1.80;;;23.60;99.90;;;;;;5055767;28;20215;-47
2023/09/15 12:22:37;;;;;;;4.53;1.80;;;23.60;99.90;;;;;;5055631;28;20258;-48
2023/09/15 12:25:03;;;;;;;2.00;1.60;;;23.40;99.90;;;;;;5056033;28;20167;-48
2023/09/15 12:27:29;;;;;;;5.55;1.60;;;23.40;99.90;;;;;;5055596;28;20666;-46
2023/09/15 12:30:02;;;;;;;3.47;1.70;;;23.50;99.90;;;;;;5055646;28;20179;-46
2023/09/15 12:32:30;;;;;;;4.55;2.20;;;23.60;99.90;;;;;;5054614;28;20556;-50
2023/09/15 12:34:56;;;;;;;3.88;1.80;;;23.50;99.90;;;;;;5054679;28;20180;-47
2023/09/15 12:37:24;;;;;;;5.07;1.80;;;23.50;99.80;;;;;;5055087;28;20164;-47